Time;durP1;ratioP1;P1;durP2;ratioP2;P2;SDS_P1;SDS_P2;PMS_P1;PMS_P2;Temp;Humidity;BMP_temperature;BMP_pressure;BME280_temperature;BME280_humidity;BME280_pressure;Samples;Min_cycle;Max_cycle;Signal;HPM_P1;HPM_P2
2021/07/20 00:00:05;;;;;;;15.90;9.38;;;26.70;52.20;;;;;;6178510;28;81296;-66
2021/07/20 00:03:10;;;;;;;12.75;8.10;;;26.60;52.10;;;;;;6178950;28;80289;-65
2021/07/20 00:06:10;;;;;;;13.07;8.18;;;26.60;52.20;;;;;;6181917;28;80755;-66
2021/07/20 00:09:11;;;;;;;20.48;9.23;;;26.60;52.40;;;;;;6180236;28;80281;-66
2021/07/20 00:12:12;;;;;;;17.02;8.85;;;26.60;52.40;;;;;;6172894;28;80807;-66
2021/07/20 00:15:12;;;;;;;18.25;9.13;;;26.60;52.70;;;;;;6165816;28;80710;-66
2021/07/20 00:18:13;;;;;;;13.98;8.32;;;26.60;53.10;;;;;;6179973;28;81237;-66
2021/07/20 00:21:13;;;;;;;16.20;8.82;;;26.50;53.50;;;;;;6177795;28;80778;-66
2021/07/20 00:24:14;;;;;;;14.95;9.05;;;26.60;53.40;;;;;;6178373;28;80779;-65
2021/07/20 00:27:14;;;;;;;15.60;8.52;;;26.60;53.70;;;;;;6178837;28;82275;-65
2021/07/20 00:30:15;;;;;;;15.15;8.63;;;26.60;53.80;;;;;;6177011;28;80477;-65
2021/07/20 00:33:16;;;;;;;13.93;8.23;;;26.50;54.10;;;;;;6179858;28;81732;-66
2021/07/20 00:36:16;;;;;;;16.88;9.60;;;26.50;54.30;;;;;;6178111;28;80590;-66
2021/07/20 00:39:17;;;;;;;15.93;8.35;;;26.50;54.50;;;;;;6174472;28;81395;-67
2021/07/20 00:42:17;;;;;;;15.52;8.85;;;26.50;54.60;;;;;;6176174;28;80772;-67
2021/07/20 00:45:18;;;;;;;14.50;8.85;;;26.50;54.60;;;;;;6178627;28;82763;-67
2021/07/20 00:48:19;;;;;;;17.95;9.35;;;26.40;54.80;;;;;;6178695;28;83261;-67
2021/07/20 00:51:22;;;;;;;19.48;8.77;;;26.40;54.50;;;;;;6170279;28;83212;-68
2021/07/20 00:54:23;;;;;;;16.77;9.75;;;26.50;54.70;;;;;;6178786;28;83251;-67
2021/07/20 00:57:24;;;;;;;14.57;8.52;;;26.50;54.80;;;;;;6198116;28;83011;-67
2021/07/20 01:00:25;;;;;;;18.90;8.80;;;26.40;54.80;;;;;;6182717;28;80459;-67
2021/07/20 01:03:27;;;;;;;15.95;9.02;;;26.40;54.80;;;;;;6182218;28;81948;-67
2021/07/20 01:06:28;;;;;;;12.73;8.50;;;26.50;55.00;;;;;;6182203;28;82668;-67
2021/07/20 01:09:30;;;;;;;15.48;8.45;;;26.50;55.10;;;;;;6179420;28;82776;-66
2021/07/20 01:12:34;;;;;;;14.45;8.13;;;26.40;55.40;;;;;;6170704;28;83225;-66
2021/07/20 01:15:34;;;;;;;17.80;9.55;;;26.40;55.10;;;;;;6183031;28;83074;-66
2021/07/20 01:18:38;;;;;;;15.77;8.88;;;26.50;55.60;;;;;;6182128;28;80663;-68
2021/07/20 01:21:40;;;;;;;13.80;8.48;;;26.50;55.80;;;;;;6170940;28;82965;-67
2021/07/20 01:24:43;;;;;;;12.82;8.77;;;26.50;55.70;;;;;;6183515;28;80434;-66
2021/07/20 01:27:44;;;;;;;15.20;8.57;;;26.50;56.00;;;;;;6180522;28;80577;-67
2021/07/20 01:30:44;;;;;;;13.13;8.88;;;26.50;55.50;;;;;;6186662;28;83314;-67
2021/07/20 01:33:48;;;;;;;16.30;8.80;;;26.40;55.60;;;;;;6181558;28;82870;-67
2021/07/20 01:36:53;;;;;;;11.07;7.57;;;26.50;56.00;;;;;;6179556;28;81877;-67
2021/07/20 01:39:55;;;;;;;13.57;8.73;;;26.40;55.70;;;;;;6177819;28;83442;-67
2021/07/20 01:42:55;;;;;;;17.80;9.10;;;26.40;56.50;;;;;;6174276;28;83282;-67
2021/07/20 01:45:59;;;;;;;16.10;8.65;;;26.40;55.90;;;;;;6176366;28;83210;-67
2021/07/20 01:49:03;;;;;;;14.95;9.13;;;26.40;55.60;;;;;;6176311;28;81568;-67
2021/07/20 01:52:05;;;;;;;13.65;8.23;;;26.40;56.00;;;;;;6181658;28;81608;-66
2021/07/20 01:55:08;;;;;;;15.23;8.93;;;26.40;55.70;;;;;;6182153;28;80551;-66
2021/07/20 01:58:09;;;;;;;13.30;8.77;;;26.40;55.60;;;;;;6183323;28;80602;-66
2021/07/20 02:01:32;;;;;;;16.30;8.90;;;26.40;55.80;;;;;;6175668;28;81486;-66
2021/07/20 02:08:24;;;;;;;16.10;9.55;;;26.40;55.70;;;;;;6173521;28;82824;-66
2021/07/20 02:08:31;;;;;;;17.02;8.48;;;26.30;56.50;;;;;;6178842;28;86135;-66
2021/07/20 02:11:37;;;;;;;16.77;8.68;;;26.30;56.00;;;;;;6180580;28;83271;-66
2021/07/20 02:14:44;;;;;;;13.45;8.57;;;26.30;56.10;;;;;;6194967;28;81381;-66
2021/07/20 02:18:03;;;;;;;13.70;8.73;;;26.30;56.10;;;;;;6181039;28;80463;-65
2021/07/20 02:21:05;;;;;;;15.57;9.02;;;26.20;56.20;;;;;;6179892;28;82838;-66
2021/07/20 02:24:11;;;;;;;14.93;8.95;;;26.30;56.60;;;;;;6181464;28;83122;-65
2021/07/20 02:27:12;;;;;;;15.00;9.73;;;26.30;56.20;;;;;;6178239;28;83533;-66
2021/07/20 02:30:23;;;;;;;12.60;8.43;;;26.30;56.50;;;;;;6196666;28;83312;-65
2021/07/20 02:33:26;;;;;;;13.18;9.48;;;26.30;56.40;;;;;;6179682;28;82832;-66
2021/07/20 02:36:27;;;;;;;13.57;9.10;;;26.30;56.30;;;;;;6176905;28;83555;-66
2021/07/20 02:39:27;;;;;;;16.23;9.70;;;26.30;56.70;;;;;;6172875;28;83050;-65
2021/07/20 02:42:29;;;;;;;14.50;9.15;;;26.30;56.20;;;;;;6180435;28;83169;-65
2021/07/20 02:45:32;;;;;;;14.93;9.15;;;26.30;56.20;;;;;;6179313;28;83174;-66
2021/07/20 02:48:35;;;;;;;22.02;9.77;;;26.30;56.20;;;;;;6179846;28;81481;-65
2021/07/20 02:51:36;;;;;;;15.65;8.73;;;26.30;56.10;;;;;;6175907;28;83308;-64
2021/07/20 02:54:37;;;;;;;14.52;9.02;;;26.30;56.10;;;;;;6180061;28;80383;-65
2021/07/20 02:57:38;;;;;;;15.68;9.02;;;26.30;56.00;;;;;;6181364;28;81021;-65
2021/07/20 03:00:41;;;;;;;26.15;9.40;;;26.30;56.00;;;;;;6180902;28;80690;-65
2021/07/20 03:03:43;;;;;;;20.67;9.82;;;26.30;55.90;;;;;;6176366;28;80552;-65
2021/07/20 03:06:44;;;;;;;15.10;9.13;;;26.30;56.00;;;;;;6177198;28;81568;-66
2021/07/20 03:09:46;;;;;;;17.67;9.20;;;26.30;55.90;;;;;;6178241;28;82403;-66
2021/07/20 03:12:47;;;;;;;14.80;9.45;;;26.30;56.50;;;;;;6179699;28;82019;-65
2021/07/20 03:15:47;;;;;;;16.55;9.55;;;26.30;55.80;;;;;;6176282;28;83665;-66
2021/07/20 03:18:53;;;;;;;17.25;9.38;;;26.30;55.80;;;;;;6178168;28;80408;-66
2021/07/20 03:21:54;;;;;;;16.17;9.52;;;26.30;55.90;;;;;;6184658;28;82842;-65
2021/07/20 03:24:57;;;;;;;15.18;9.00;;;26.30;55.80;;;;;;6175226;28;80455;-65
2021/07/20 03:27:58;;;;;;;15.73;8.75;;;26.40;55.80;;;;;;6156128;28;82439;-66
2021/07/20 03:31:02;;;;;;;15.35;10.10;;;26.40;55.90;;;;;;6170228;28;82865;-65
2021/07/20 03:34:04;;;;;;;13.07;8.50;;;26.40;55.90;;;;;;6170227;28;84315;-66
2021/07/20 03:37:13;;;;;;;15.10;9.35;;;26.30;55.80;;;;;;6178466;28;85142;-66
2021/07/20 03:40:18;;;;;;;17.08;10.38;;;26.40;55.90;;;;;;6168978;28;83101;-66
2021/07/20 03:43:22;;;;;;;17.52;9.48;;;26.30;55.80;;;;;;6161815;28;82795;-66
2021/07/20 03:46:23;;;;;;;13.00;8.85;;;26.40;55.90;;;;;;6175939;28;82740;-66
2021/07/20 03:49:24;;;;;;;18.05;9.60;;;26.30;56.30;;;;;;6180746;28;81695;-65
2021/07/20 03:52:24;;;;;;;15.07;9.23;;;26.30;56.00;;;;;;6174071;28;82824;-66
2021/07/20 03:55:25;;;;;;;15.15;9.13;;;26.30;56.10;;;;;;6175869;28;80492;-65
2021/07/20 03:58:28;;;;;;;13.40;9.27;;;26.30;56.00;;;;;;6187727;28;81849;-66
2021/07/20 04:01:29;;;;;;;15.30;9.25;;;26.30;56.10;;;;;;6176527;28;82262;-63
2021/07/20 04:04:30;;;;;;;16.67;9.27;;;26.30;56.00;;;;;;6177876;28;81056;-64
2021/07/20 04:07:40;;;;;;;13.10;9.20;;;26.30;56.10;;;;;;6170800;28;82740;-65
2021/07/20 04:10:46;;;;;;;14.80;9.02;;;26.40;56.00;;;;;;6178380;28;82745;-67
2021/07/20 04:13:52;;;;;;;15.98;9.02;;;26.40;56.00;;;;;;6179117;28;85812;-69
2021/07/20 04:17:09;;;;;;;18.65;9.30;;;26.30;56.00;;;;;;6159092;28;83349;-67
2021/07/20 04:20:09;;;;;;;17.25;8.55;;;26.40;56.30;;;;;;6167205;28;81588;-68
2021/07/20 04:23:12;;;;;;;15.38;8.82;;;26.40;56.20;;;;;;6187994;28;83420;-70
2021/07/20 04:26:21;;;;;;;16.17;9.60;;;26.50;56.50;;;;;;6197263;28;82906;-68
2021/07/20 04:29:22;;;;;;;12.77;9.07;;;26.50;56.50;;;;;;6183517;28;82811;-69
2021/07/20 04:32:23;;;;;;;15.23;9.15;;;26.50;56.40;;;;;;6181178;28;81722;-68
2021/07/20 04:35:24;;;;;;;16.40;9.85;;;26.50;56.20;;;;;;6181578;28;82463;-72
2021/07/20 04:38:31;;;;;;;14.90;9.73;;;26.50;57.00;;;;;;6173079;28;81534;-69
2021/07/20 04:41:32;;;;;;;14.73;9.05;;;26.60;56.40;;;;;;6182967;28;81516;-69
2021/07/20 04:44:33;;;;;;;16.98;8.88;;;26.60;56.30;;;;;;6199374;28;84709;-73
2021/07/20 04:47:49;;;;;;;;;;;26.60;56.30;;;;;;6180623;28;83573;-69
2021/07/20 04:51:03;;;;;;;16.35;9.63;;;26.60;56.90;;;;;;6184051;28;83246;-69
2021/07/20 04:54:08;;;;;;;17.13;10.65;;;26.70;58.10;;;;;;6178685;28;81078;-70
2021/07/20 04:57:09;;;;;;;15.63;10.38;;;26.70;58.00;;;;;;6173169;28;85018;-69
2021/07/20 05:00:11;;;;;;;15.90;10.18;;;26.70;58.00;;;;;;6175187;28;83353;-69
2021/07/20 05:03:12;;;;;;;15.23;9.70;;;26.70;57.50;;;;;;6177828;28;83503;-69
2021/07/20 05:06:12;;;;;;;17.75;9.45;;;26.70;57.20;;;;;;6180605;28;85891;-69
2021/07/20 05:09:22;;;;;;;16.88;9.88;;;26.70;57.10;;;;;;6180630;28;81521;-68
2021/07/20 05:12:23;;;;;;;16.27;9.77;;;26.70;56.60;;;;;;6179599;28;83117;-69
2021/07/20 05:15:33;;;;;;;15.38;9.63;;;26.70;56.30;;;;;;6196214;28;82897;-70
2021/07/20 05:18:33;;;;;;;16.73;10.60;;;26.60;56.00;;;;;;6181102;28;82871;-69
2021/07/20 05:21:37;;;;;;;17.13;10.02;;;26.60;55.90;;;;;;6172402;28;82950;-67
2021/07/20 05:24:37;;;;;;;16.17;10.65;;;26.60;56.00;;;;;;6161459;28;83090;-68
2021/07/20 05:27:42;;;;;;;17.98;10.38;;;26.60;56.00;;;;;;6168749;28;84803;-69
2021/07/20 05:30:45;;;;;;;19.40;9.73;;;26.60;56.30;;;;;;6177384;28;85655;-68
2021/07/20 05:33:46;;;;;;;15.68;9.63;;;26.60;56.60;;;;;;6174319;28;84056;-68
2021/07/20 05:36:48;;;;;;;23.25;9.95;;;26.60;56.40;;;;;;6173061;28;81253;-70
2021/07/20 05:39:52;;;;;;;18.80;10.00;;;26.60;56.50;;;;;;6181495;28;83233;-69
2021/07/20 05:43:09;;;;;;;16.83;10.23;;;26.60;56.70;;;;;;6182885;28;83455;-68
2021/07/20 05:46:15;;;;;;;20.27;10.77;;;26.60;56.90;;;;;;6173048;28;85644;-69
2021/07/20 05:49:16;;;;;;;19.38;10.60;;;26.60;56.90;;;;;;6180408;28;83183;-67
2021/07/20 05:52:16;;;;;;;15.45;10.35;;;26.60;56.90;;;;;;6176164;28;84000;-69
2021/07/20 05:55:21;;;;;;;23.55;11.05;;;26.60;56.90;;;;;;6172772;28;83991;-69
2021/07/20 05:58:22;;;;;;;22.52;10.25;;;26.60;57.50;;;;;;6167382;28;82670;-68
2021/07/20 06:01:22;;;;;;;17.75;11.05;;;26.60;57.90;;;;;;6168305;28;85607;-68
2021/07/20 06:04:27;;;;;;;17.17;10.77;;;26.60;57.50;;;;;;6163703;28;85849;-67
2021/07/20 06:07:28;;;;;;;18.63;10.50;;;26.60;57.90;;;;;;6176909;28;83266;-69
2021/07/20 06:10:28;;;;;;;14.73;9.88;;;26.60;58.80;;;;;;6172075;28;83941;-68
2021/07/20 06:13:29;;;;;;;15.32;9.25;;;26.60;60.10;;;;;;6165527;28;84362;-68
2021/07/20 06:16:29;;;;;;;18.67;8.73;;;26.60;59.90;;;;;;6174071;28;83274;-68
2021/07/20 06:19:30;;;;;;;20.15;9.73;;;26.60;60.30;;;;;;6169658;28;80634;-68
2021/07/20 06:22:32;;;;;;;15.32;9.05;;;26.60;60.80;;;;;;6169508;28;81091;-68
2021/07/20 06:25:36;;;;;;;15.65;9.07;;;26.60;60.90;;;;;;6180674;28;83248;-71
2021/07/20 06:28:36;;;;;;;18.38;9.88;;;26.70;61.30;;;;;;6166956;28;80777;-69
2021/07/20 06:31:39;;;;;;;16.45;9.23;;;26.70;61.40;;;;;;6188667;28;80743;-69
2021/07/20 06:34:39;;;;;;;14.35;8.77;;;26.60;61.10;;;;;;6188225;28;81289;-69
2021/07/20 06:37:40;;;;;;;15.95;9.45;;;26.60;60.30;;;;;;6180123;28;80892;-70
2021/07/20 06:40:40;;;;;;;15.45;9.43;;;26.60;59.70;;;;;;6177463;28;80649;-69
2021/07/20 06:43:41;;;;;;;18.38;10.02;;;26.60;58.90;;;;;;6182718;28;80758;-68
2021/07/20 06:46:42;;;;;;;15.23;9.57;;;26.60;57.90;;;;;;6170360;28;82716;-70
2021/07/20 06:49:43;;;;;;;18.80;10.45;;;26.60;58.60;;;;;;6173614;28;82819;-68
2021/07/20 06:52:43;;;;;;;20.85;9.82;;;26.60;57.90;;;;;;6177070;28;83275;-69
2021/07/20 06:55:44;;;;;;;19.30;9.95;;;26.60;57.90;;;;;;6179227;28;82943;-69
2021/07/20 06:58:45;;;;;;;24.38;9.95;;;26.60;57.50;;;;;;6181849;28;81578;-69
2021/07/20 07:01:46;;;;;;;25.27;10.75;;;26.60;57.20;;;;;;6179796;28;83259;-69
2021/07/20 07:04:47;;;;;;;26.77;9.77;;;26.60;57.50;;;;;;6166648;28;82927;-69
2021/07/20 07:07:47;;;;;;;23.83;9.85;;;26.60;57.30;;;;;;6173592;28;83075;-68
2021/07/20 07:10:48;;;;;;;18.60;8.80;;;26.60;57.20;;;;;;6173585;28;81441;-68
2021/07/20 07:13:48;;;;;;;17.35;8.88;;;26.60;57.10;;;;;;6180299;28;83616;-70
2021/07/20 07:16:49;;;;;;;17.15;9.10;;;26.60;57.40;;;;;;6182637;28;80350;-70
2021/07/20 07:19:49;;;;;;;16.02;8.32;;;26.60;57.30;;;;;;6179770;28;87043;-68
2021/07/20 07:22:50;;;;;;;11.95;8.40;;;26.60;57.10;;;;;;6177617;28;81167;-68
2021/07/20 07:25:50;;;;;;;15.18;8.60;;;26.60;57.20;;;;;;6169049;28;80422;-69
2021/07/20 07:28:52;;;;;;;14.80;8.68;;;26.60;57.20;;;;;;6189101;28;80579;-68
2021/07/20 07:31:53;;;;;;;14.30;7.65;;;26.60;57.40;;;;;;6176830;28;80380;-70
2021/07/20 07:34:53;;;;;;;16.67;8.68;;;26.60;56.70;;;;;;6174399;28;80708;-68
2021/07/20 07:37:54;;;;;;;15.65;7.78;;;26.60;56.30;;;;;;6167038;28;81358;-69
2021/07/20 07:40:54;;;;;;;15.20;8.32;;;26.60;56.40;;;;;;6170806;28;80685;-69
2021/07/20 07:43:55;;;;;;;14.95;8.93;;;26.60;56.30;;;;;;6167713;28;80892;-70
2021/07/20 07:46:56;;;;;;;15.75;8.40;;;26.60;56.30;;;;;;6173184;28;80561;-68
2021/07/20 07:49:56;;;;;;;16.83;9.13;;;26.60;56.20;;;;;;6172122;28;80552;-68
2021/07/20 07:52:57;;;;;;;15.25;8.20;;;26.70;56.90;;;;;;6177769;28;80389;-68
2021/07/20 07:55:57;;;;;;;19.55;9.45;;;26.70;56.70;;;;;;6179692;28;80416;-68
2021/07/20 07:58:58;;;;;;;13.18;7.75;;;26.70;56.30;;;;;;6173351;28;80602;-69
2021/07/20 08:01:58;;;;;;;17.25;8.50;;;26.70;56.40;;;;;;6181421;28;80426;-68
2021/07/20 08:04:59;;;;;;;12.68;8.10;;;26.70;56.70;;;;;;6175418;28;80478;-69
2021/07/20 08:07:59;;;;;;;13.23;8.05;;;26.70;56.40;;;;;;6173772;28;82265;-67
2021/07/20 08:11:00;;;;;;;14.65;8.45;;;26.70;56.10;;;;;;6176085;28;81262;-68
2021/07/20 08:14:00;;;;;;;15.38;8.70;;;26.70;56.30;;;;;;6180317;28;81468;-70
2021/07/20 08:17:01;;;;;;;30.52;8.30;;;26.70;56.10;;;;;;6180586;28;80402;-67
2021/07/20 08:20:01;;;;;;;32.97;8.88;;;26.70;55.60;;;;;;6176202;28;80299;-66
2021/07/20 08:23:02;;;;;;;22.75;9.20;;;26.70;55.70;;;;;;6181688;28;80887;-68
2021/07/20 08:26:02;;;;;;;19.02;7.70;;;26.70;55.50;;;;;;6179004;28;80937;-67
2021/07/20 08:29:03;;;;;;;22.02;7.95;;;26.70;55.80;;;;;;6183231;28;80577;-68
2021/07/20 08:32:03;;;;;;;20.55;8.00;;;26.70;55.20;;;;;;6178389;28;80653;-68
2021/07/20 08:35:04;;;;;;;20.50;8.15;;;26.70;55.70;;;;;;6176147;28;80745;-68
2021/07/20 08:38:05;;;;;;;22.27;8.18;;;26.70;54.90;;;;;;6183503;28;81851;-67
2021/07/20 08:41:08;;;;;;;13.23;6.90;;;26.70;55.00;;;;;;6181074;28;80379;-68
2021/07/20 08:44:09;;;;;;;13.50;7.40;;;26.60;54.80;;;;;;6175511;28;81657;-68
2021/07/20 08:47:09;;;;;;;17.40;8.13;;;26.60;54.70;;;;;;6172335;28;80840;-68
2021/07/20 08:50:10;;;;;;;15.55;8.45;;;26.70;54.60;;;;;;6180778;28;80614;-68
2021/07/20 08:53:10;;;;;;;15.60;8.32;;;26.70;54.50;;;;;;6184240;28;80557;-67
2021/07/20 08:56:11;;;;;;;17.25;8.15;;;26.60;54.30;;;;;;6183363;28;80181;-69
2021/07/20 08:59:11;;;;;;;12.82;7.95;;;26.60;53.90;;;;;;6185311;28;80405;-68
2021/07/20 09:02:12;;;;;;;13.85;8.35;;;26.60;54.10;;;;;;6180920;28;84203;-68
2021/07/20 09:05:12;;;;;;;13.18;7.70;;;26.60;54.10;;;;;;6190253;28;81380;-68
2021/07/20 09:08:13;;;;;;;13.90;7.80;;;26.60;54.30;;;;;;6181444;28;80760;-69
2021/07/20 09:11:13;;;;;;;15.05;8.27;;;26.60;54.20;;;;;;6176837;28;80604;-69
2021/07/20 09:14:14;;;;;;;13.00;7.60;;;26.60;54.20;;;;;;6182158;28;81457;-68
2021/07/20 09:17:14;;;;;;;16.15;8.10;;;26.50;53.90;;;;;;6185478;28;85212;-68
2021/07/20 09:20:15;;;;;;;15.40;9.05;;;26.50;54.00;;;;;;6182052;28;85573;-68
2021/07/20 09:23:15;;;;;;;16.10;8.57;;;26.40;53.90;;;;;;6172387;28;80532;-68
2021/07/20 09:26:16;;;;;;;13.45;8.27;;;26.40;53.90;;;;;;6186148;28;81542;-68
2021/07/20 09:29:16;;;;;;;13.77;7.90;;;26.30;53.40;;;;;;6180712;28;80814;-68
2021/07/20 09:32:17;;;;;;;15.70;8.93;;;26.30;53.10;;;;;;6182499;28;81505;-68
2021/07/20 09:35:18;;;;;;;12.35;7.88;;;26.20;52.90;;;;;;6181075;28;80363;-66
2021/07/20 09:38:18;;;;;;;15.90;8.13;;;26.20;53.10;;;;;;6179255;28;82443;-65
2021/07/20 09:41:19;;;;;;;14.35;8.75;;;26.30;53.80;;;;;;6180215;28;81369;-66
2021/07/20 09:44:20;;;;;;;14.93;8.20;;;26.20;54.90;;;;;;6179795;28;80608;-66
2021/07/20 09:47:21;;;;;;;15.80;7.53;;;26.20;54.90;;;;;;6175694;28;83105;-63
2021/07/20 09:50:22;;;;;;;20.17;10.65;;;26.30;55.20;;;;;;6178441;28;83223;-66
2021/07/20 09:53:22;;;;;;;15.52;9.18;;;26.30;55.40;;;;;;6181009;28;83608;-67
2021/07/20 09:56:23;;;;;;;18.98;9.85;;;26.30;56.30;;;;;;6182689;28;84259;-66
2021/07/20 09:59:23;;;;;;;15.90;8.73;;;26.30;56.00;;;;;;6178314;28;81242;-67
2021/07/20 10:02:24;;;;;;;16.05;8.32;;;26.40;55.70;;;;;;6177087;28;80599;-67
2021/07/20 10:05:24;;;;;;;13.68;8.52;;;26.40;56.00;;;;;;6176118;28;80691;-67
2021/07/20 10:08:25;;;;;;;17.13;8.82;;;26.40;56.10;;;;;;6174308;28;81465;-68
2021/07/20 10:11:25;;;;;;;17.73;8.80;;;26.40;56.20;;;;;;6174323;28;81831;-69
2021/07/20 10:14:26;;;;;;;17.33;8.70;;;26.40;55.50;;;;;;6174483;28;80438;-67
2021/07/20 10:17:26;;;;;;;16.67;9.07;;;26.40;55.20;;;;;;6169999;28;80657;-67
2021/07/20 10:20:27;;;;;;;20.90;8.48;;;26.50;55.00;;;;;;6180415;28;81643;-67
2021/07/20 10:23:27;;;;;;;13.52;7.55;;;26.50;54.80;;;;;;6182231;28;81190;-66
2021/07/20 10:26:30;;;;;;;17.50;8.68;;;26.50;55.10;;;;;;6170098;28;80734;-67
2021/07/20 10:29:30;;;;;;;11.73;7.85;;;26.50;54.80;;;;;;6169779;28;80439;-65
2021/07/20 10:32:31;;;;;;;15.52;9.80;;;26.50;54.50;;;;;;6180461;28;80339;-65
2021/07/20 10:35:31;;;;;;;13.88;8.77;;;26.40;54.60;;;;;;6174690;28;80692;-67
2021/07/20 10:38:32;;;;;;;15.40;8.38;;;26.40;54.20;;;;;;6180332;28;80586;-64
2021/07/20 10:41:32;;;;;;;14.90;9.15;;;26.40;54.20;;;;;;6168196;28;80321;-65
2021/07/20 10:44:33;;;;;;;19.58;10.18;;;26.30;54.30;;;;;;6172967;28;80372;-66
2021/07/20 10:47:33;;;;;;;19.42;10.93;;;26.20;54.70;;;;;;6176517;28;83151;-66
2021/07/20 10:50:34;;;;;;;16.20;9.55;;;26.10;55.00;;;;;;6171265;28;83442;-66
2021/07/20 10:53:34;;;;;;;15.73;9.40;;;26.00;55.20;;;;;;6174415;28;84335;-66
2021/07/20 10:56:37;;;;;;;13.40;8.98;;;26.10;55.20;;;;;;6173711;28;80518;-66
2021/07/20 10:59:38;;;;;;;14.13;9.43;;;26.00;55.00;;;;;;6172156;28;80417;-66
2021/07/20 11:02:38;;;;;;;16.75;9.77;;;26.00;55.00;;;;;;6191354;28;81833;-65
2021/07/20 11:05:39;;;;;;;13.02;9.13;;;26.00;55.60;;;;;;6176599;28;80886;-64
2021/07/20 11:08:41;;;;;;;14.75;8.82;;;25.90;54.90;;;;;;6172193;28;80407;-65
2021/07/20 11:11:41;;;;;;;16.95;9.70;;;25.90;55.50;;;;;;6163655;28;81382;-64
2021/07/20 11:14:42;;;;;;;20.60;9.60;;;26.00;56.00;;;;;;6171283;28;80924;-65
2021/07/20 11:17:42;;;;;;;14.45;9.05;;;26.00;55.90;;;;;;6166839;28;82687;-65
2021/07/20 11:20:43;;;;;;;13.32;8.80;;;26.10;56.00;;;;;;6165199;28;80904;-65
2021/07/20 11:23:44;;;;;;;14.88;8.82;;;26.10;55.60;;;;;;6167592;28;81401;-65
2021/07/20 11:26:44;;;;;;;13.63;8.68;;;26.10;55.80;;;;;;6165404;28;81239;-65
2021/07/20 11:29:45;;;;;;;15.77;8.45;;;26.10;55.50;;;;;;6161089;28;80982;-66
2021/07/20 11:32:45;;;;;;;15.25;9.35;;;26.20;55.70;;;;;;6169136;28;80326;-65
2021/07/20 11:35:46;;;;;;;14.10;9.50;;;26.30;55.50;;;;;;6173847;28;80769;-67
2021/07/20 11:38:47;;;;;;;15.32;8.93;;;26.30;56.20;;;;;;6171827;28;81499;-66
2021/07/20 11:41:47;;;;;;;16.13;9.18;;;26.30;55.30;;;;;;6168511;28;80534;-66
2021/07/20 11:44:48;;;;;;;12.60;7.90;;;26.20;54.90;;;;;;6175281;28;80679;-66
2021/07/20 11:47:48;;;;;;;11.82;8.00;;;26.30;55.60;;;;;;6174793;28;81016;-65
2021/07/20 11:50:49;;;;;;;12.98;8.27;;;26.30;54.90;;;;;;6177260;28;80323;-65
2021/07/20 11:53:49;;;;;;;11.45;7.85;;;26.40;55.30;;;;;;6164914;28;81403;-65
2021/07/20 11:56:50;;;;;;;15.52;11.02;;;26.40;55.00;;;;;;6168948;28;80331;-65
2021/07/20 11:59:52;;;;;;;15.13;10.48;;;26.40;54.80;;;;;;6170266;28;83702;-66
2021/07/20 12:02:52;;;;;;;15.20;9.82;;;26.40;54.50;;;;;;6163769;28;83525;-66
2021/07/20 12:05:53;;;;;;;13.10;8.57;;;26.40;54.30;;;;;;6170359;28;82917;-66
2021/07/20 12:08:53;;;;;;;12.82;8.43;;;26.30;54.00;;;;;;6173552;28;80869;-67
2021/07/20 12:11:54;;;;;;;21.98;10.75;;;26.40;54.30;;;;;;6176025;28;80907;-65
2021/07/20 12:14:54;;;;;;;18.20;9.68;;;26.40;54.00;;;;;;6175634;28;83148;-69
2021/07/20 12:17:55;;;;;;;52.00;18.60;;;26.30;53.40;;;;;;6180832;28;83483;-66
2021/07/20 12:20:55;;;;;;;63.25;20.08;;;26.20;53.60;;;;;;6181028;28;84192;-67
2021/07/20 12:23:58;;;;;;;30.27;13.13;;;26.20;53.30;;;;;;6176774;28;86344;-66
2021/07/20 12:26:59;;;;;;;21.95;11.00;;;26.10;52.90;;;;;;6182010;28;84337;-68
2021/07/20 12:29:59;;;;;;;18.83;9.98;;;26.10;53.30;;;;;;6179950;28;83302;-67
2021/07/20 12:33:00;;;;;;;21.38;9.82;;;26.10;53.90;;;;;;6177046;28;83408;-68
2021/07/20 12:36:00;;;;;;;18.70;8.20;;;26.10;53.80;;;;;;6181360;28;83938;-68
2021/07/20 12:39:01;;;;;;;20.77;9.15;;;26.10;53.80;;;;;;6171807;28;80635;-67
2021/07/20 12:42:01;;;;;;;21.55;9.05;;;26.00;54.00;;;;;;6161422;28;81654;-67
2021/07/20 12:45:02;;;;;;;14.93;8.65;;;26.00;54.00;;;;;;6172372;28;80565;-67
2021/07/20 12:48:03;;;;;;;15.70;8.82;;;26.00;54.50;;;;;;6180192;28;80486;-67
2021/07/20 12:51:03;;;;;;;15.30;8.60;;;26.00;54.10;;;;;;6175467;28;80674;-67
2021/07/20 12:54:04;;;;;;;12.45;7.35;;;26.00;53.30;;;;;;6179994;28;81694;-66
2021/07/20 12:57:04;;;;;;;13.57;7.95;;;25.90;52.20;;;;;;6175961;28;80554;-66
2021/07/20 13:00:05;;;;;;;19.77;9.18;;;26.00;53.60;;;;;;6186794;28;80829;-67
2021/07/20 13:03:05;;;;;;;11.80;7.72;;;26.00;52.90;;;;;;6177414;28;80901;-67
2021/07/20 13:06:06;;;;;;;14.38;8.52;;;26.00;53.40;;;;;;6174318;28;80959;-68
2021/07/20 13:09:06;;;;;;;13.93;9.07;;;26.10;53.50;;;;;;6179430;28;80507;-67
2021/07/20 13:12:07;;;;;;;16.40;8.68;;;26.10;53.80;;;;;;6176272;28;80749;-69
2021/07/20 13:15:07;;;;;;;13.23;8.50;;;26.10;54.00;;;;;;6171749;28;80841;-66
2021/07/20 13:18:08;;;;;;;12.27;7.55;;;26.10;54.50;;;;;;6173781;28;80777;-69
2021/07/20 13:21:08;;;;;;;13.68;8.73;;;26.10;54.30;;;;;;6177848;28;80635;-67
2021/07/20 13:24:09;;;;;;;13.80;8.30;;;26.10;54.60;;;;;;6177775;28;80882;-68
2021/07/20 13:27:09;;;;;;;12.43;8.30;;;26.10;54.00;;;;;;6174581;28;82516;-67
2021/07/20 13:30:10;;;;;;;12.15;8.20;;;26.10;54.10;;;;;;6173943;28;81361;-67
2021/07/20 13:33:10;;;;;;;18.58;9.18;;;26.10;53.80;;;;;;6173496;28;80204;-65
2021/07/20 13:36:11;;;;;;;12.73;8.25;;;26.10;53.50;;;;;;6177602;28;81954;-66
2021/07/20 13:39:11;;;;;;;14.43;8.80;;;26.10;53.30;;;;;;6176775;28;81412;-65
2021/07/20 13:42:12;;;;;;;13.10;8.93;;;26.20;53.00;;;;;;6179761;28;81925;-67
2021/07/20 13:45:12;;;;;;;15.38;8.45;;;26.20;53.10;;;;;;6174731;28;80825;-67
2021/07/20 13:48:13;;;;;;;13.32;8.45;;;26.20;53.00;;;;;;6170521;28;81723;-67
2021/07/20 13:51:13;;;;;;;15.70;8.25;;;26.20;52.70;;;;;;6170385;28;81382;-66
2021/07/20 13:54:14;;;;;;;12.63;8.20;;;26.20;52.30;;;;;;6175665;28;81059;-66
2021/07/20 13:57:14;;;;;;;11.25;7.35;;;26.20;52.20;;;;;;6171770;28;81201;-66
2021/07/20 14:00:15;;;;;;;17.00;9.25;;;26.20;51.70;;;;;;6171712;28;80566;-66
2021/07/20 14:03:15;;;;;;;12.38;8.18;;;26.30;51.70;;;;;;6176935;28;80567;-66
2021/07/20 14:06:16;;;;;;;11.32;7.68;;;26.20;51.00;;;;;;6179964;28;80701;-66
2021/07/20 14:09:16;;;;;;;11.68;7.53;;;26.30;51.60;;;;;;6172810;28;80949;-66
2021/07/20 14:12:18;;;;;;;13.60;8.48;;;26.40;51.50;;;;;;6172768;28;80510;-66
2021/07/20 14:15:20;;;;;;;14.85;8.18;;;26.40;51.80;;;;;;6175394;28;81245;-66
2021/07/20 14:18:20;;;;;;;13.77;8.60;;;26.40;51.80;;;;;;6175617;28;81079;-68
2021/07/20 14:21:20;;;;;;;11.40;7.13;;;26.40;51.70;;;;;;6174650;28;81382;-67
2021/07/20 14:24:21;;;;;;;13.30;7.85;;;26.40;51.40;;;;;;6174770;28;82091;-67
2021/07/20 14:27:22;;;;;;;9.85;7.60;;;26.50;51.60;;;;;;6179180;28;80453;-67
2021/07/20 14:30:22;;;;;;;12.13;7.10;;;26.50;51.40;;;;;;6179146;28;80312;-66
2021/07/20 14:33:24;;;;;;;11.95;7.93;;;26.50;51.10;;;;;;6165904;28;81503;-70
2021/07/20 14:36:24;;;;;;;10.30;7.00;;;26.50;51.20;;;;;;6170719;28;80712;-67
2021/07/20 14:39:25;;;;;;;11.48;7.78;;;26.50;50.20;;;;;;6175839;28;80806;-67
2021/07/20 14:42:25;;;;;;;10.48;7.60;;;26.50;50.20;;;;;;6180817;28;80429;-67
2021/07/20 14:45:26;;;;;;;17.10;8.40;;;26.50;50.30;;;;;;6160551;28;81822;-67
2021/07/20 14:48:26;;;;;;;13.73;8.77;;;26.50;50.90;;;;;;6165675;28;80354;-74
2021/07/20 14:51:27;;;;;;;15.25;8.05;;;26.50;50.80;;;;;;6165199;28;80491;-68
2021/07/20 14:54:27;;;;;;;13.93;8.45;;;26.60;50.90;;;;;;6173452;28;80320;-68
2021/07/20 14:57:28;;;;;;;11.77;8.00;;;26.60;51.10;;;;;;6180080;28;80750;-68
2021/07/20 15:00:28;;;;;;;12.57;8.05;;;26.60;51.00;;;;;;6177368;28;83098;-68
2021/07/20 15:03:29;;;;;;;11.15;6.70;;;26.60;51.10;;;;;;6180061;28;81414;-68
2021/07/20 15:06:30;;;;;;;11.70;7.63;;;26.60;51.00;;;;;;6178011;28;81725;-67
2021/07/20 15:09:30;;;;;;;14.05;8.45;;;26.60;50.40;;;;;;6176731;28;80341;-69
2021/07/20 15:12:31;;;;;;;10.65;7.35;;;26.60;50.00;;;;;;6173906;28;81491;-67
2021/07/20 15:15:31;;;;;;;15.20;8.10;;;26.60;50.80;;;;;;6168182;28;81764;-68
2021/07/20 15:18:32;;;;;;;12.95;7.85;;;26.60;50.20;;;;;;6174965;28;81065;-69
2021/07/20 15:21:32;;;;;;;10.40;7.32;;;26.50;50.40;;;;;;6164447;28;81541;-68
2021/07/20 15:24:33;;;;;;;14.63;8.20;;;26.50;50.70;;;;;;6166741;28;80563;-68
2021/07/20 15:27:33;;;;;;;10.85;7.75;;;26.50;50.60;;;;;;6166356;28;81509;-68
2021/07/20 15:30:35;;;;;;;15.40;8.18;;;26.50;50.70;;;;;;6170663;28;80470;-68